Terminal Aerodrome Forecast
Issued by NWS

Home | Current Version | Previous Version | Text Only | Print | Product List | Glossary On
Versions: 1 2 3 4 5 6 7 8 9 10 11 12 13 14 15 16 17 18
828
FTUS43 KMQT 061135
TAFCMX
TAF
KCMX 061135Z 0612/0712 27015KT P6SM VCSH OVC016
     FM061400 28010KT 2SM -SHSN OVC016
     FM061900 26008KT 2SM -SHSN OVC012
     FM062200 18004KT 4SM -SHSN OVC022
     FM070000 13006KT 4SM -SN OVC028
     FM070400 15007KT 2SM -SN OVC014=

USA.gov is the U.S. government's official web portal to all federal, state and local government web resources and services.